sensor_id;sensor_type;location;lat;lon;timestamp;temperature;humidity
1590;DHT22;788;48.720;9.158;2022-11-15T00:13:49;8.90;99.90
1590;DHT22;788;48.720;9.158;2022-11-15T00:16:17;8.90;99.90
1590;DHT22;788;48.720;9.158;2022-11-15T00:18:44;8.90;99.90
1590;DHT22;788;48.720;9.158;2022-11-15T00:21:12;8.90;99.90
1590;DHT22;788;48.720;9.158;2022-11-15T00:23:41;9.00;99.90
1590;DHT22;788;48.720;9.158;2022-11-15T00:26:13;9.00;99.90
1590;DHT22;788;48.720;9.158;2022-11-15T00:28:41;9.00;99.90
1590;DHT22;788;48.720;9.158;2022-11-15T00:31:13;8.90;99.90
1590;DHT22;788;48.720;9.158;2022-11-15T00:33:40;9.00;99.90
1590;DHT22;788;48.720;9.158;2022-11-15T00:36:09;9.00;99.90
1590;DHT22;788;48.720;9.158;2022-11-15T00:38:40;9.00;99.90
1590;DHT22;788;48.720;9.158;2022-11-15T00:41:09;9.00;99.90
1590;DHT22;788;48.720;9.158;2022-11-15T00:43:37;9.00;99.90
1590;DHT22;788;48.720;9.158;2022-11-15T00:46:08;9.00;99.90
1590;DHT22;788;48.720;9.158;2022-11-15T00:48:38;9.00;99.90
1590;DHT22;788;48.720;9.158;2022-11-15T00:51:05;9.10;99.90
1590;DHT22;788;48.720;9.158;2022-11-15T00:53:32;9.00;99.90
1590;DHT22;788;48.720;9.158;2022-11-15T00:56:05;9.00;99.90
1590;DHT22;788;48.720;9.158;2022-11-15T00:58:32;9.10;99.90
1590;DHT22;788;48.720;9.158;2022-11-15T01:01:06;9.10;99.90
1590;DHT22;788;48.720;9.158;2022-11-15T01:03:33;9.10;99.90
1590;DHT22;788;48.720;9.158;2022-11-15T01:06:02;9.10;99.90
1590;DHT22;788;48.720;9.158;2022-11-15T01:08:30;9.10;99.90
1590;DHT22;788;48.720;9.158;2022-11-15T01:11:01;9.10;99.90
1590;DHT22;788;48.720;9.158;2022-11-15T01:13:30;9.10;99.90
1590;DHT22;788;48.720;9.158;2022-11-15T01:15:57;9.10;99.90
1590;DHT22;788;48.720;9.158;2022-11-15T01:18:24;9.00;99.90
1590;DHT22;788;48.720;9.158;2022-11-15T01:20:51;9.10;99.90
1590;DHT22;788;48.720;9.158;2022-11-15T01:23:19;9.10;99.90
1590;DHT22;788;48.720;9.158;2022-11-15T01:25:46;9.00;99.90
1590;DHT22;788;48.720;9.158;2022-11-15T01:28:14;9.00;99.90
1590;DHT22;788;48.720;9.158;2022-11-15T01:30:41;9.00;99.90
1590;DHT22;788;48.720;9.158;2022-11-15T01:33:08;9.00;99.90
1590;DHT22;788;48.720;9.158;2022-11-15T01:35:38;8.90;99.90
1590;DHT22;788;48.720;9.158;2022-11-15T01:38:07;8.80;99.90
1590;DHT22;788;48.720;9.158;2022-11-15T01:40:35;8.80;99.90
1590;DHT22;788;48.720;9.158;2022-11-15T01:43:18;8.80;99.90
1590;DHT22;788;48.720;9.158;2022-11-15T01:45:51;8.70;99.90
1590;DHT22;788;48.720;9.158;2022-11-15T01:48:21;8.70;99.90
1590;DHT22;788;48.720;9.158;2022-11-15T01:50:49;8.70;99.90
1590;DHT22;788;48.720;9.158;2022-11-15T01:53:17;8.70;99.90
1590;DHT22;788;48.720;9.158;2022-11-15T01:55:47;8.60;99.90
1590;DHT22;788;48.720;9.158;2022-11-15T01:58:14;8.60;99.90
1590;DHT22;788;48.720;9.158;2022-11-15T02:01:25;8.60;99.90
1590;DHT22;788;48.720;9.158;2022-11-15T02:03:48;8.60;99.90
1590;DHT22;788;48.720;9.158;2022-11-15T02:06:18;8.60;99.90
1590;DHT22;788;48.720;9.158;2022-11-15T02:08:50;8.60;99.90
1590;DHT22;788;48.720;9.158;2022-11-15T02:11:18;8.60;99.90
1590;DHT22;788;48.720;9.158;2022-11-15T02:13:46;8.60;99.90
1590;DHT22;788;48.720;9.158;2022-11-15T02:16:21;8.60;99.90
1590;DHT22;788;48.720;9.158;2022-11-15T02:19:01;8.60;99.90
1590;DHT22;788;48.720;9.158;2022-11-15T02:21:35;8.50;99.90
1590;DHT22;788;48.720;9.158;2022-11-15T02:24:17;8.50;99.90
1590;DHT22;788;48.720;9.158;2022-11-15T02:30:11;8.50;99.90
1590;DHT22;788;48.720;9.158;2022-11-15T02:32:43;8.40;99.90
1590;DHT22;788;48.720;9.158;2022-11-15T02:35:19;8.40;99.90
1590;DHT22;788;48.720;9.158;2022-11-15T02:37:55;8.40;99.90
1590;DHT22;788;48.720;9.158;2022-11-15T02:40:30;8.40;99.90
1590;DHT22;788;48.720;9.158;2022-11-15T02:43:06;8.40;99.90
1590;DHT22;788;48.720;9.158;2022-11-15T02:46:00;8.40;99.90
1590;DHT22;788;48.720;9.158;2022-11-15T02:48:30;8.40;99.90
1590;DHT22;788;48.720;9.158;2022-11-15T02:50:59;8.40;99.90
1590;DHT22;788;48.720;9.158;2022-11-15T02:53:26;8.40;99.90
1590;DHT22;788;48.720;9.158;2022-11-15T02:55:54;8.40;99.90
1590;DHT22;788;48.720;9.158;2022-11-15T02:58:35;8.50;99.90
1590;DHT22;788;48.720;9.158;2022-11-15T03:01:23;8.50;99.90
1590;DHT22;788;48.720;9.158;2022-11-15T03:04:15;8.40;99.90
1590;DHT22;788;48.720;9.158;2022-11-15T03:06:52;8.40;99.90
1590;DHT22;788;48.720;9.158;2022-11-15T03:09:29;8.40;99.90
1590;DHT22;788;48.720;9.158;2022-11-15T03:12:09;8.30;99.90
1590;DHT22;788;48.720;9.158;2022-11-15T03:14:45;8.30;99.90
1590;DHT22;788;48.720;9.158;2022-11-15T03:17:21;8.20;99.90
1590;DHT22;788;48.720;9.158;2022-11-15T03:19:57;8.20;99.90
1590;DHT22;788;48.720;9.158;2022-11-15T03:22:34;8.20;99.90
1590;DHT22;788;48.720;9.158;2022-11-15T03:25:05;8.20;99.90
1590;DHT22;788;48.720;9.158;2022-11-15T03:27:41;8.20;99.90
1590;DHT22;788;48.720;9.158;2022-11-15T03:30:11;8.20;99.90
1590;DHT22;788;48.720;9.158;2022-11-15T03:32:44;8.20;99.90
1590;DHT22;788;48.720;9.158;2022-11-15T03:35:13;8.20;99.90
1590;DHT22;788;48.720;9.158;2022-11-15T03:37:48;8.30;99.90
1590;DHT22;788;48.720;9.158;2022-11-15T03:40:17;8.20;99.90
1590;DHT22;788;48.720;9.158;2022-11-15T03:42:53;8.20;99.90
1590;DHT22;788;48.720;9.158;2022-11-15T03:45:28;8.30;99.90
1590;DHT22;788;48.720;9.158;2022-11-15T03:48:01;8.30;99.90
1590;DHT22;788;48.720;9.158;2022-11-15T03:50:31;8.30;99.90
1590;DHT22;788;48.720;9.158;2022-11-15T03:52:58;8.30;99.90
1590;DHT22;788;48.720;9.158;2022-11-15T03:55:26;8.20;99.90
1590;DHT22;788;48.720;9.158;2022-11-15T03:57:56;8.10;99.90
1590;DHT22;788;48.720;9.158;2022-11-15T04:00:24;8.20;99.90
1590;DHT22;788;48.720;9.158;2022-11-15T04:02:53;8.20;99.90
1590;DHT22;788;48.720;9.158;2022-11-15T04:05:24;8.20;99.90
1590;DHT22;788;48.720;9.158;2022-11-15T04:07:51;8.20;99.90
1590;DHT22;788;48.720;9.158;2022-11-15T04:10:18;8.20;99.90
1590;DHT22;788;48.720;9.158;2022-11-15T04:12:46;8.20;99.90
1590;DHT22;788;48.720;9.158;2022-11-15T04:15:14;8.20;99.90
1590;DHT22;788;48.720;9.158;2022-11-15T04:17:42;8.20;99.90
1590;DHT22;788;48.720;9.158;2022-11-15T04:20:12;8.20;99.90
1590;DHT22;788;48.720;9.158;2022-11-15T04:23:01;8.20;99.90
1590;DHT22;788;48.720;9.158;2022-11-15T04:28:21;8.20;99.90
1590;DHT22;788;48.720;9.158;2022-11-15T04:30:50;8.20;99.90
1590;DHT22;788;48.720;9.158;2022-11-15T04:33:20;8.20;99.90
1590;DHT22;788;48.720;9.158;2022-11-15T04:35:57;8.20;99.90
1590;DHT22;788;48.720;9.158;2022-11-15T04:38:42;8.20;99.90
1590;DHT22;788;48.720;9.158;2022-11-15T04:41:20;8.10;99.90
1590;DHT22;788;48.720;9.158;2022-11-15T04:43:48;8.10;99.90
1590;DHT22;788;48.720;9.158;2022-11-15T04:46:15;8.10;99.90
1590;DHT22;788;48.720;9.158;2022-11-15T04:48:42;8.10;99.90
1590;DHT22;788;48.720;9.158;2022-11-15T04:51:09;8.00;99.90
1590;DHT22;788;48.720;9.158;2022-11-15T04:53:42;8.00;99.90
1590;DHT22;788;48.720;9.158;2022-11-15T04:56:09;8.00;99.90
1590;DHT22;788;48.720;9.158;2022-11-15T04:58:36;8.00;99.90
1590;DHT22;788;48.720;9.158;2022-11-15T05:01:07;8.00;99.90
1590;DHT22;788;48.720;9.158;2022-11-15T05:03:35;8.00;99.90
1590;DHT22;788;48.720;9.158;2022-11-15T05:06:19;8.00;99.90
1590;DHT22;788;48.720;9.158;2022-11-15T05:08:49;8.00;99.90
1590;DHT22;788;48.720;9.158;2022-11-15T05:11:17;8.00;99.90
1590;DHT22;788;48.720;9.158;2022-11-15T05:13:46;8.10;99.90
1590;DHT22;788;48.720;9.158;2022-11-15T05:16:13;8.10;99.90
1590;DHT22;788;48.720;9.158;2022-11-15T05:18:40;8.10;99.90
1590;DHT22;788;48.720;9.158;2022-11-15T05:21:08;8.10;99.90
1590;DHT22;788;48.720;9.158;2022-11-15T05:23:35;8.10;99.90
1590;DHT22;788;48.720;9.158;2022-11-15T05:26:05;8.00;99.90
1590;DHT22;788;48.720;9.158;2022-11-15T05:28:33;8.00;99.90
1590;DHT22;788;48.720;9.158;2022-11-15T05:31:01;7.90;99.90
1590;DHT22;788;48.720;9.158;2022-11-15T05:33:28;7.80;99.90
1590;DHT22;788;48.720;9.158;2022-11-15T05:35:59;7.80;99.90
1590;DHT22;788;48.720;9.158;2022-11-15T05:38:48;7.90;99.90
1590;DHT22;788;48.720;9.158;2022-11-15T05:41:30;7.90;99.90
1590;DHT22;788;48.720;9.158;2022-11-15T05:44:09;7.90;99.90
1590;DHT22;788;48.720;9.158;2022-11-15T05:46:57;7.90;99.90
1590;DHT22;788;48.720;9.158;2022-11-15T05:49:48;7.90;99.90
1590;DHT22;788;48.720;9.158;2022-11-15T05:52:34;8.00;99.90
1590;DHT22;788;48.720;9.158;2022-11-15T05:55:19;8.00;99.90
1590;DHT22;788;48.720;9.158;2022-11-15T05:58:03;8.00;99.90
1590;DHT22;788;48.720;9.158;2022-11-15T06:01:13;8.00;99.90
1590;DHT22;788;48.720;9.158;2022-11-15T06:03:54;8.00;99.90
1590;DHT22;788;48.720;9.158;2022-11-15T06:07:05;8.00;99.90
1590;DHT22;788;48.720;9.158;2022-11-15T06:10:00;8.00;99.90
1590;DHT22;788;48.720;9.158;2022-11-15T06:12:34;8.00;99.90
1590;DHT22;788;48.720;9.158;2022-11-15T06:25:26;7.90;99.90
1590;DHT22;788;48.720;9.158;2022-11-15T06:27:53;7.80;99.90
1590;DHT22;788;48.720;9.158;2022-11-15T06:30:21;7.80;99.90
1590;DHT22;788;48.720;9.158;2022-11-15T06:32:48;7.90;99.90
1590;DHT22;788;48.720;9.158;2022-11-15T06:35:54;7.90;99.90
1590;DHT22;788;48.720;9.158;2022-11-15T06:45:54;7.90;99.90
1590;DHT22;788;48.720;9.158;2022-11-15T06:48:20;7.80;99.90
1590;DHT22;788;48.720;9.158;2022-11-15T06:50:50;7.90;99.90
1590;DHT22;788;48.720;9.158;2022-11-15T06:53:17;8.00;99.90
1590;DHT22;788;48.720;9.158;2022-11-15T06:55:44;8.00;99.90
1590;DHT22;788;48.720;9.158;2022-11-15T06:58:11;8.00;99.90
1590;DHT22;788;48.720;9.158;2022-11-15T07:00:38;8.10;99.90
1590;DHT22;788;48.720;9.158;2022-11-15T07:03:10;8.20;99.90
1590;DHT22;788;48.720;9.158;2022-11-15T07:05:37;8.30;99.90
1590;DHT22;788;48.720;9.158;2022-11-15T07:08:04;8.40;99.90
1590;DHT22;788;48.720;9.158;2022-11-15T07:10:31;8.50;99.90
1590;DHT22;788;48.720;9.158;2022-11-15T07:12:58;8.60;99.90
1590;DHT22;788;48.720;9.158;2022-11-15T07:15:25;8.70;99.90
1590;DHT22;788;48.720;9.158;2022-11-15T07:17:52;8.80;99.90
1590;DHT22;788;48.720;9.158;2022-11-15T07:20:21;8.90;99.90
1590;DHT22;788;48.720;9.158;2022-11-15T07:22:47;9.00;99.90
1590;DHT22;788;48.720;9.158;2022-11-15T07:25:14;9.10;99.90
1590;DHT22;788;48.720;9.158;2022-11-15T07:27:44;9.10;99.90
1590;DHT22;788;48.720;9.158;2022-11-15T07:30:23;9.20;99.90
1590;DHT22;788;48.720;9.158;2022-11-15T07:32:53;9.30;99.90
1590;DHT22;788;48.720;9.158;2022-11-15T07:35:21;9.40;99.90
1590;DHT22;788;48.720;9.158;2022-11-15T07:37:57;9.40;99.90
1590;DHT22;788;48.720;9.158;2022-11-15T07:41:01;9.50;99.90
1590;DHT22;788;48.720;9.158;2022-11-15T07:43:30;9.60;99.90
1590;DHT22;788;48.720;9.158;2022-11-15T07:46:10;9.70;99.90
1590;DHT22;788;48.720;9.158;2022-11-15T07:48:38;9.90;99.90
1590;DHT22;788;48.720;9.158;2022-11-15T10:28:53;16.10;99.70
1590;DHT22;788;48.720;9.158;2022-11-15T10:31:24;16.10;99.80
1590;DHT22;788;48.720;9.158;2022-11-15T10:33:53;16.10;99.80
1590;DHT22;788;48.720;9.158;2022-11-15T10:36:25;16.20;99.30
1590;DHT22;788;48.720;9.158;2022-11-15T10:39:03;16.30;99.20
1590;DHT22;788;48.720;9.158;2022-11-15T10:41:34;16.30;99.30
1590;DHT22;788;48.720;9.158;2022-11-15T10:47:24;16.50;98.70
1590;DHT22;788;48.720;9.158;2022-11-15T10:50:05;16.50;99.10
1590;DHT22;788;48.720;9.158;2022-11-15T10:52:35;16.50;98.60
1590;DHT22;788;48.720;9.158;2022-11-15T10:55:24;16.50;99.00
1590;DHT22;788;48.720;9.158;2022-11-15T10:57:53;16.40;98.70
1590;DHT22;788;48.720;9.158;2022-11-15T11:00:31;16.40;99.40
1590;DHT22;788;48.720;9.158;2022-11-15T11:03:00;16.30;99.50
1590;DHT22;788;48.720;9.158;2022-11-15T11:05:29;16.30;99.90
1590;DHT22;788;48.720;9.158;2022-11-15T11:07:59;16.20;99.90
1590;DHT22;788;48.720;9.158;2022-11-15T11:10:27;16.10;99.90
1590;DHT22;788;48.720;9.158;2022-11-15T11:12:54;16.10;99.90
1590;DHT22;788;48.720;9.158;2022-11-15T11:15:24;16.00;99.90
1590;DHT22;788;48.720;9.158;2022-11-15T11:18:05;16.00;99.90
1590;DHT22;788;48.720;9.158;2022-11-15T11:20:39;15.90;99.90
1590;DHT22;788;48.720;9.158;2022-11-15T11:23:23;16.00;99.90
1590;DHT22;788;48.720;9.158;2022-11-15T11:26:01;16.00;99.90
1590;DHT22;788;48.720;9.158;2022-11-15T11:28:39;16.10;99.90
1590;DHT22;788;48.720;9.158;2022-11-15T11:31:20;16.20;99.90
1590;DHT22;788;48.720;9.158;2022-11-15T11:34:00;16.20;99.90
1590;DHT22;788;48.720;9.158;2022-11-15T11:36:39;16.30;99.90
1590;DHT22;788;48.720;9.158;2022-11-15T11:39:20;16.30;99.70
1590;DHT22;788;48.720;9.158;2022-11-15T11:41:55;16.30;99.90
1590;DHT22;788;48.720;9.158;2022-11-15T11:44:41;16.30;99.90
1590;DHT22;788;48.720;9.158;2022-11-15T11:47:11;16.40;99.50
1590;DHT22;788;48.720;9.158;2022-11-15T11:49:43;16.50;99.30
1590;DHT22;788;48.720;9.158;2022-11-15T11:52:16;16.60;98.50
1590;DHT22;788;48.720;9.158;2022-11-15T11:54:54;16.60;98.50
1590;DHT22;788;48.720;9.158;2022-11-15T11:57:29;16.50;98.40
1590;DHT22;788;48.720;9.158;2022-11-15T12:00:00;16.50;98.60
1590;DHT22;788;48.720;9.158;2022-11-15T12:02:31;16.50;98.60
1590;DHT22;788;48.720;9.158;2022-11-15T12:05:07;16.60;99.40
1590;DHT22;788;48.720;9.158;2022-11-15T12:07:38;16.80;99.60
1590;DHT22;788;48.720;9.158;2022-11-15T12:10:16;17.00;98.80
1590;DHT22;788;48.720;9.158;2022-11-15T12:12:49;17.00;98.50
1590;DHT22;788;48.720;9.158;2022-11-15T12:15:21;17.10;98.80
1590;DHT22;788;48.720;9.158;2022-11-15T12:17:48;17.10;98.40
1590;DHT22;788;48.720;9.158;2022-11-15T12:20:18;17.10;98.00
1590;DHT22;788;48.720;9.158;2022-11-15T12:22:52;17.10;98.40
1590;DHT22;788;48.720;9.158;2022-11-15T12:25:22;17.00;99.00
1590;DHT22;788;48.720;9.158;2022-11-15T12:27:53;17.00;99.30
1590;DHT22;788;48.720;9.158;2022-11-15T12:30:21;16.90;99.70
1590;DHT22;788;48.720;9.158;2022-11-15T12:32:51;16.90;99.80
1590;DHT22;788;48.720;9.158;2022-11-15T12:35:34;16.80;99.90
1590;DHT22;788;48.720;9.158;2022-11-15T12:38:01;16.70;99.90
1590;DHT22;788;48.720;9.158;2022-11-15T12:40:36;16.70;99.90
1590;DHT22;788;48.720;9.158;2022-11-15T12:46:12;16.60;99.90
1590;DHT22;788;48.720;9.158;2022-11-15T12:48:48;16.50;99.90
1590;DHT22;788;48.720;9.158;2022-11-15T12:51:18;16.40;99.90
1590;DHT22;788;48.720;9.158;2022-11-15T12:53:46;16.40;99.90
1590;DHT22;788;48.720;9.158;2022-11-15T12:56:22;16.30;99.90
1590;DHT22;788;48.720;9.158;2022-11-15T12:58:52;16.30;99.90
1590;DHT22;788;48.720;9.158;2022-11-15T13:04:26;16.20;99.90
1590;DHT22;788;48.720;9.158;2022-11-15T13:06:56;16.10;99.90
1590;DHT22;788;48.720;9.158;2022-11-15T13:09:51;16.10;99.90
1590;DHT22;788;48.720;9.158;2022-11-15T13:12:51;16.00;99.90
1590;DHT22;788;48.720;9.158;2022-11-15T13:15:51;15.90;99.90
1590;DHT22;788;48.720;9.158;2022-11-15T13:18:37;15.90;99.90
1590;DHT22;788;48.720;9.158;2022-11-15T13:21:18;15.80;99.90
1590;DHT22;788;48.720;9.158;2022-11-15T13:24:09;15.80;99.90
1590;DHT22;788;48.720;9.158;2022-11-15T13:26:38;15.70;99.90
1590;DHT22;788;48.720;9.158;2022-11-15T13:29:15;15.70;99.90
1590;DHT22;788;48.720;9.158;2022-11-15T13:31:43;15.70;99.90
1590;DHT22;788;48.720;9.158;2022-11-15T13:34:28;15.70;99.90
1590;DHT22;788;48.720;9.158;2022-11-15T13:36:56;15.60;99.90
1590;DHT22;788;48.720;9.158;2022-11-15T13:39:29;15.60;99.90
1590;DHT22;788;48.720;9.158;2022-11-15T13:41:56;15.50;99.90
1590;DHT22;788;48.720;9.158;2022-11-15T13:44:27;15.40;99.90
1590;DHT22;788;48.720;9.158;2022-11-15T13:47:05;15.40;99.90
1590;DHT22;788;48.720;9.158;2022-11-15T13:49:33;15.30;99.90
1590;DHT22;788;48.720;9.158;2022-11-15T13:52:02;15.30;99.90
1590;DHT22;788;48.720;9.158;2022-11-15T13:54:34;15.20;99.90
1590;DHT22;788;48.720;9.158;2022-11-15T13:57:05;15.20;99.90
1590;DHT22;788;48.720;9.158;2022-11-15T13:59:36;15.10;99.90
1590;DHT22;788;48.720;9.158;2022-11-15T14:02:12;15.10;99.90
1590;DHT22;788;48.720;9.158;2022-11-15T14:04:46;15.00;99.90
1590;DHT22;788;48.720;9.158;2022-11-15T14:07:17;15.00;99.90
1590;DHT22;788;48.720;9.158;2022-11-15T14:09:47;14.90;99.90
1590;DHT22;788;48.720;9.158;2022-11-15T14:12:26;14.80;99.90
1590;DHT22;788;48.720;9.158;2022-11-15T14:14:57;14.70;99.90
1590;DHT22;788;48.720;9.158;2022-11-15T14:17:35;14.70;99.90
1590;DHT22;788;48.720;9.158;2022-11-15T14:22:51;14.50;99.90
1590;DHT22;788;48.720;9.158;2022-11-15T14:25:21;14.50;99.90
1590;DHT22;788;48.720;9.158;2022-11-15T14:28:08;14.50;99.90
1590;DHT22;788;48.720;9.158;2022-11-15T14:30:51;14.50;99.90
1590;DHT22;788;48.720;9.158;2022-11-15T14:33:21;14.50;99.90
1590;DHT22;788;48.720;9.158;2022-11-15T14:35:48;14.50;99.90
1590;DHT22;788;48.720;9.158;2022-11-15T14:38:15;14.50;99.90
1590;DHT22;788;48.720;9.158;2022-11-15T14:40:44;14.50;99.90
1590;DHT22;788;48.720;9.158;2022-11-15T14:43:11;14.50;99.90
1590;DHT22;788;48.720;9.158;2022-11-15T14:45:38;14.40;99.90
1590;DHT22;788;48.720;9.158;2022-11-15T14:48:06;14.30;99.90
1590;DHT22;788;48.720;9.158;2022-11-15T14:50:37;14.20;99.90
1590;DHT22;788;48.720;9.158;2022-11-15T14:53:04;14.20;99.90
1590;DHT22;788;48.720;9.158;2022-11-15T14:55:32;14.10;99.90
1590;DHT22;788;48.720;9.158;2022-11-15T14:58:03;14.10;99.90
1590;DHT22;788;48.720;9.158;2022-11-15T15:00:33;14.00;99.90
1590;DHT22;788;48.720;9.158;2022-11-15T15:03:00;14.00;99.90
1590;DHT22;788;48.720;9.158;2022-11-15T15:05:31;14.00;99.90
1590;DHT22;788;48.720;9.158;2022-11-15T15:07:59;13.90;99.90
1590;DHT22;788;48.720;9.158;2022-11-15T15:10:29;13.90;99.90
1590;DHT22;788;48.720;9.158;2022-11-15T15:12:57;13.80;99.90
1590;DHT22;788;48.720;9.158;2022-11-15T15:15:29;13.90;99.90
1590;DHT22;788;48.720;9.158;2022-11-15T15:17:57;13.80;99.90
1590;DHT22;788;48.720;9.158;2022-11-15T15:20:24;13.70;99.90
1590;DHT22;788;48.720;9.158;2022-11-15T15:22:51;13.60;99.90
1590;DHT22;788;48.720;9.158;2022-11-15T15:25:21;13.60;99.90
1590;DHT22;788;48.720;9.158;2022-11-15T15:27:48;13.60;99.90
1590;DHT22;788;48.720;9.158;2022-11-15T15:30:15;13.60;99.90
1590;DHT22;788;48.720;9.158;2022-11-15T15:32:44;13.50;99.90
1590;DHT22;788;48.720;9.158;2022-11-15T15:35:12;13.50;99.90
1590;DHT22;788;48.720;9.158;2022-11-15T15:37:39;13.40;99.90
1590;DHT22;788;48.720;9.158;2022-11-15T15:40:11;13.30;99.90
1590;DHT22;788;48.720;9.158;2022-11-15T15:42:39;13.20;99.90
1590;DHT22;788;48.720;9.158;2022-11-15T15:45:07;13.20;99.90
1590;DHT22;788;48.720;9.158;2022-11-15T15:47:34;13.10;99.90
1590;DHT22;788;48.720;9.158;2022-11-15T15:50:02;13.00;99.90
1590;DHT22;788;48.720;9.158;2022-11-15T15:52:29;13.00;99.90
1590;DHT22;788;48.720;9.158;2022-11-15T15:54:56;12.90;99.90
1590;DHT22;788;48.720;9.158;2022-11-15T15:57:23;12.90;99.90
1590;DHT22;788;48.720;9.158;2022-11-15T15:59:49;12.90;99.90
1590;DHT22;788;48.720;9.158;2022-11-15T16:02:16;12.90;99.90
1590;DHT22;788;48.720;9.158;2022-11-15T16:04:43;12.90;99.90
1590;DHT22;788;48.720;9.158;2022-11-15T16:07:16;12.90;99.90
1590;DHT22;788;48.720;9.158;2022-11-15T16:09:43;12.80;99.90
1590;DHT22;788;48.720;9.158;2022-11-15T16:12:30;12.80;99.90
1590;DHT22;788;48.720;9.158;2022-11-15T16:14:57;12.80;99.90
1590;DHT22;788;48.720;9.158;2022-11-15T16:17:26;12.80;99.90
1590;DHT22;788;48.720;9.158;2022-11-15T16:19:53;12.80;99.90
1590;DHT22;788;48.720;9.158;2022-11-15T16:22:21;12.80;99.90
1590;DHT22;788;48.720;9.158;2022-11-15T16:24:48;12.80;99.90
1590;DHT22;788;48.720;9.158;2022-11-15T16:27:16;12.80;99.90
1590;DHT22;788;48.720;9.158;2022-11-15T16:29:43;12.80;99.90
1590;DHT22;788;48.720;9.158;2022-11-15T16:32:11;12.80;99.90
1590;DHT22;788;48.720;9.158;2022-11-15T16:34:38;12.80;99.90
1590;DHT22;788;48.720;9.158;2022-11-15T16:37:05;12.80;99.90
1590;DHT22;788;48.720;9.158;2022-11-15T16:39:33;12.80;99.90
1590;DHT22;788;48.720;9.158;2022-11-15T16:42:00;12.80;99.90
1590;DHT22;788;48.720;9.158;2022-11-15T16:47:09;12.70;99.90
1590;DHT22;788;48.720;9.158;2022-11-15T16:49:43;12.70;99.90
1590;DHT22;788;48.720;9.158;2022-11-15T16:52:12;12.70;99.90
1590;DHT22;788;48.720;9.158;2022-11-15T16:54:54;12.70;99.90
1590;DHT22;788;48.720;9.158;2022-11-15T17:00:49;12.50;99.90
1590;DHT22;788;48.720;9.158;2022-11-15T17:03:17;12.50;99.90
1590;DHT22;788;48.720;9.158;2022-11-15T17:06:29;12.50;99.90
1590;DHT22;788;48.720;9.158;2022-11-15T17:08:59;12.30;99.90
1590;DHT22;788;48.720;9.158;2022-11-15T17:11:29;12.30;99.90
1590;DHT22;788;48.720;9.158;2022-11-15T17:14:03;12.30;99.90
1590;DHT22;788;48.720;9.158;2022-11-15T17:16:31;12.30;99.90
1590;DHT22;788;48.720;9.158;2022-11-15T17:19:11;12.30;99.90
1590;DHT22;788;48.720;9.158;2022-11-15T17:21:39;12.30;99.90
1590;DHT22;788;48.720;9.158;2022-11-15T17:24:08;12.30;99.90
1590;DHT22;788;48.720;9.158;2022-11-15T17:26:37;12.20;99.90
1590;DHT22;788;48.720;9.158;2022-11-15T17:29:05;12.20;99.90
1590;DHT22;788;48.720;9.158;2022-11-15T17:31:33;12.30;99.90
1590;DHT22;788;48.720;9.158;2022-11-15T17:34:01;12.20;99.90
1590;DHT22;788;48.720;9.158;2022-11-15T17:36:31;12.20;99.90
1590;DHT22;788;48.720;9.158;2022-11-15T17:39:28;12.20;99.90
1590;DHT22;788;48.720;9.158;2022-11-15T17:42:10;12.20;99.90
1590;DHT22;788;48.720;9.158;2022-11-15T17:44:37;12.20;99.90
1590;DHT22;788;48.720;9.158;2022-11-15T17:47:05;12.20;99.90
1590;DHT22;788;48.720;9.158;2022-11-15T17:49:33;12.10;99.90
1590;DHT22;788;48.720;9.158;2022-11-15T17:52:06;12.10;99.90
1590;DHT22;788;48.720;9.158;2022-11-15T17:54:36;12.10;99.90
1590;DHT22;788;48.720;9.158;2022-11-15T17:57:03;12.20;99.90
1590;DHT22;788;48.720;9.158;2022-11-15T17:59:41;12.10;99.90
1590;DHT22;788;48.720;9.158;2022-11-15T18:02:08;12.20;99.90
1590;DHT22;788;48.720;9.158;2022-11-15T18:04:35;12.20;99.90
1590;DHT22;788;48.720;9.158;2022-11-15T18:07:48;12.10;99.90
1590;DHT22;788;48.720;9.158;2022-11-15T18:10:27;12.10;99.90
1590;DHT22;788;48.720;9.158;2022-11-15T18:12:55;12.20;99.90
1590;DHT22;788;48.720;9.158;2022-11-15T18:15:23;12.20;99.90
1590;DHT22;788;48.720;9.158;2022-11-15T18:18:07;12.20;99.90
1590;DHT22;788;48.720;9.158;2022-11-15T18:20:36;12.20;99.90
1590;DHT22;788;48.720;9.158;2022-11-15T18:23:03;12.20;99.90
1590;DHT22;788;48.720;9.158;2022-11-15T18:25:34;12.30;99.90
1590;DHT22;788;48.720;9.158;2022-11-15T18:28:04;12.30;99.90
1590;DHT22;788;48.720;9.158;2022-11-15T18:30:35;12.30;99.90
1590;DHT22;788;48.720;9.158;2022-11-15T18:33:04;12.40;99.90
1590;DHT22;788;48.720;9.158;2022-11-15T18:35:43;12.40;99.90
1590;DHT22;788;48.720;9.158;2022-11-15T18:38:13;12.40;99.90
1590;DHT22;788;48.720;9.158;2022-11-15T18:40:40;12.40;99.90
1590;DHT22;788;48.720;9.158;2022-11-15T18:43:12;12.40;99.90
1590;DHT22;788;48.720;9.158;2022-11-15T18:45:40;12.40;99.90
1590;DHT22;788;48.720;9.158;2022-11-15T18:48:20;12.40;99.90
1590;DHT22;788;48.720;9.158;2022-11-15T18:51:02;12.50;99.90
1590;DHT22;788;48.720;9.158;2022-11-15T18:53:37;12.40;99.90
1590;DHT22;788;48.720;9.158;2022-11-15T18:56:19;12.40;99.90
1590;DHT22;788;48.720;9.158;2022-11-15T18:58:54;12.40;99.90
1590;DHT22;788;48.720;9.158;2022-11-15T19:01:25;12.40;99.90
1590;DHT22;788;48.720;9.158;2022-11-15T19:03:53;12.40;99.90
1590;DHT22;788;48.720;9.158;2022-11-15T19:06:22;12.40;99.90
1590;DHT22;788;48.720;9.158;2022-11-15T19:09:00;12.50;99.90
1590;DHT22;788;48.720;9.158;2022-11-15T19:11:30;12.40;99.90
1590;DHT22;788;48.720;9.158;2022-11-15T19:13:59;12.50;99.90
1590;DHT22;788;48.720;9.158;2022-11-15T19:16:33;12.50;99.90
1590;DHT22;788;48.720;9.158;2022-11-15T19:22:37;12.50;99.90
1590;DHT22;788;48.720;9.158;2022-11-15T19:25:04;12.50;99.90
1590;DHT22;788;48.720;9.158;2022-11-15T19:27:34;12.40;99.90
1590;DHT22;788;48.720;9.158;2022-11-15T19:30:02;12.40;99.90
1590;DHT22;788;48.720;9.158;2022-11-15T19:32:34;12.50;99.90
1590;DHT22;788;48.720;9.158;2022-11-15T19:35:10;12.50;99.90
1590;DHT22;788;48.720;9.158;2022-11-15T19:37:40;12.50;99.90
1590;DHT22;788;48.720;9.158;2022-11-15T19:40:11;12.50;99.90
1590;DHT22;788;48.720;9.158;2022-11-15T19:42:41;12.50;99.90
1590;DHT22;788;48.720;9.158;2022-11-15T19:45:09;12.60;99.90
1590;DHT22;788;48.720;9.158;2022-11-15T19:47:41;12.60;99.90
1590;DHT22;788;48.720;9.158;2022-11-15T19:50:14;12.60;99.90
1590;DHT22;788;48.720;9.158;2022-11-15T19:52:40;12.60;99.90
1590;DHT22;788;48.720;9.158;2022-11-15T19:55:08;12.60;99.90
1590;DHT22;788;48.720;9.158;2022-11-15T19:57:35;12.60;99.90
1590;DHT22;788;48.720;9.158;2022-11-15T20:00:02;12.70;99.90
1590;DHT22;788;48.720;9.158;2022-11-15T20:06:19;12.70;99.90
1590;DHT22;788;48.720;9.158;2022-11-15T20:08:49;12.60;99.90
1590;DHT22;788;48.720;9.158;2022-11-15T20:11:16;12.60;99.90
1590;DHT22;788;48.720;9.158;2022-11-15T20:13:58;12.60;99.90
1590;DHT22;788;48.720;9.158;2022-11-15T20:16:31;12.60;99.90
1590;DHT22;788;48.720;9.158;2022-11-15T20:18:59;12.60;99.90
1590;DHT22;788;48.720;9.158;2022-11-15T20:21:30;12.60;99.90
1590;DHT22;788;48.720;9.158;2022-11-15T20:24:02;12.60;99.90
1590;DHT22;788;48.720;9.158;2022-11-15T20:26:31;12.50;99.90
1590;DHT22;788;48.720;9.158;2022-11-15T20:29:28;12.50;99.90
1590;DHT22;788;48.720;9.158;2022-11-15T20:33:11;12.60;99.90
1590;DHT22;788;48.720;9.158;2022-11-15T20:36:26;12.50;99.90
1590;DHT22;788;48.720;9.158;2022-11-15T20:39:27;12.50;99.90
1590;DHT22;788;48.720;9.158;2022-11-15T20:42:09;12.50;99.90